首页
METAR-TAF:

METAR-TAF

机场 :

Mullan Pass Vor, 爱达荷州, 美国

纬度: 47-27-15N, 经度: 115-40-11W, 海拔: 1829米

当前天气观测

该预报发布于22分钟前的14:23 UTC
风速6节,风向东转东南
温度 -7°C
湿度 86%
气压 1023 hPa
能見度: 14.5公里
少量云层高于2200英尺
散云层高于2900英尺

METAR: KMLP 191423Z AUTO 12006KT 9SM FEW022 SCT029 M07/M09 A3021 RMK AO2 T10671089

时间: 07:45 (14:45 UTC)


TAF: 丢失

超过4000个机场的气象观测和天气预报(METAR&TAF报告)。

可查询的气象台以黄色和红色小点在地图上表示。

将鼠标移到小点上方,可查看气象台名称。

然后点击查看天气观测和预报。

如需切换地图:点击带黑十字的绿色按钮放大地图;点击带横线的绿色按钮缩小地图;或者点击绿色箭头查看邻近地区的地图。


METAR-TAF: